Time;durP1;ratioP1;P1;durP2;ratioP2;P2;SDS_P1;SDS_P2;PMS_P1;PMS_P2;Temp;Humidity;BMP_temperature;BMP_pressure;BME280_temperature;BME280_humidity;BME280_pressure;Samples;Min_cycle;Max_cycle;Signal;HPM_P1;HPM_P2
2022/11/15 00:02:28;;;;;;;3.10;2.72;;;17.20;55.80;;;;;;4977484;28;20221;-69
2022/11/15 00:05:13;;;;;;;2.70;2.50;;;17.20;55.70;;;;;;4977362;28;20201;-69
2022/11/15 00:07:59;;;;;;;2.90;2.65;;;17.20;55.80;;;;;;4977807;28;20193;-69
2022/11/15 00:10:54;;;;;;;3.50;2.65;;;17.20;55.70;;;;;;4977274;28;20719;-69
2022/11/15 00:13:40;;;;;;;2.88;2.40;;;17.20;55.60;;;;;;4977221;28;20333;-69
2022/11/15 00:16:26;;;;;;;2.88;2.50;;;17.20;55.60;;;;;;4977263;28;20214;-69
2022/11/15 00:19:12;;;;;;;3.08;2.55;;;17.10;55.60;;;;;;4976862;28;20683;-69
2022/11/15 00:21:57;;;;;;;3.08;2.72;;;17.20;55.80;;;;;;4977006;28;20221;-69
2022/11/15 00:24:43;;;;;;;2.90;2.70;;;17.20;55.70;;;;;;4977541;28;20205;-69
2022/11/15 00:27:30;;;;;;;2.63;2.42;;;17.10;55.50;;;;;;4976845;28;20192;-69
2022/11/15 00:30:17;;;;;;;3.03;2.70;;;17.10;55.50;;;;;;4976871;28;20553;-69
2022/11/15 00:33:03;;;;;;;3.00;2.60;;;17.10;55.50;;;;;;4976806;28;20205;-69
2022/11/15 00:35:49;;;;;;;2.90;2.60;;;17.20;55.60;;;;;;4962709;28;20225;-69
2022/11/15 00:38:35;;;;;;;3.35;2.63;;;17.10;55.40;;;;;;4976915;28;20664;-69
2022/11/15 00:41:21;;;;;;;3.25;2.60;;;17.10;55.40;;;;;;4976910;28;20224;-69
2022/11/15 00:44:07;;;;;;;2.70;2.47;;;17.10;55.40;;;;;;4976686;28;20313;-69
2022/11/15 00:46:53;;;;;;;2.88;2.67;;;17.10;55.50;;;;;;4977176;28;20232;-69
2022/11/15 00:49:40;;;;;;;3.20;2.80;;;17.10;55.50;;;;;;4976696;28;20205;-69
2022/11/15 00:52:26;;;;;;;2.80;2.60;;;17.10;55.50;;;;;;4962225;28;20256;-69
2022/11/15 00:55:14;;;;;;;3.78;2.58;;;17.10;55.50;;;;;;4976586;28;20575;-69
2022/11/15 00:57:59;;;;;;;2.90;2.53;;;17.10;55.60;;;;;;4976684;28;20232;-69
2022/11/15 01:00:46;;;;;;;3.38;2.50;;;17.00;55.40;;;;;;4976740;28;20229;-69
2022/11/15 01:03:33;;;;;;;2.75;2.38;;;17.00;55.50;;;;;;4976187;28;20236;-69
2022/11/15 01:06:19;;;;;;;2.70;2.50;;;17.00;55.40;;;;;;4975994;28;20194;-69
2022/11/15 01:09:04;;;;;;;2.92;2.50;;;17.00;55.60;;;;;;4976121;28;20265;-69
2022/11/15 01:11:50;;;;;;;2.30;2.10;;;17.00;55.60;;;;;;4975955;28;20229;-69
2022/11/15 01:14:36;;;;;;;2.50;2.30;;;17.00;55.50;;;;;;4975970;28;20325;-69
2022/11/15 01:17:23;;;;;;;3.08;2.65;;;17.00;55.60;;;;;;4976070;28;20653;-69
2022/11/15 01:20:10;;;;;;;2.97;2.67;;;17.00;55.60;;;;;;4976477;28;20661;-69
2022/11/15 01:22:56;;;;;;;2.70;2.50;;;17.00;55.60;;;;;;4976243;28;20546;-69
2022/11/15 01:25:41;;;;;;;2.50;2.30;;;16.90;55.60;;;;;;4976312;28;20647;-69
2022/11/15 01:28:30;;;;;;;3.30;2.40;;;16.90;55.50;;;;;;4981192;28;20290;-69
2022/11/15 01:31:17;;;;;;;3.35;2.75;;;16.90;55.60;;;;;;4976220;28;20312;-69
2022/11/15 01:34:04;;;;;;;2.40;2.20;;;16.90;55.50;;;;;;4975574;28;20695;-69
2022/11/15 01:36:50;;;;;;;2.90;2.70;;;16.90;55.60;;;;;;4975492;28;20186;-69
2022/11/15 01:39:36;;;;;;;3.95;2.63;;;16.90;55.70;;;;;;4975735;28;20237;-69
2022/11/15 01:42:22;;;;;;;2.85;2.60;;;16.80;55.70;;;;;;4975540;28;20221;-69
2022/11/15 01:45:11;;;;;;;2.65;2.42;;;16.80;55.70;;;;;;4975383;28;20181;-69
2022/11/15 01:47:56;;;;;;;2.70;2.30;;;16.80;55.80;;;;;;4975682;28;20190;-69
2022/11/15 01:50:43;;;;;;;2.38;2.17;;;16.80;55.80;;;;;;4975603;28;20587;-69
2022/11/15 01:53:30;;;;;;;2.60;2.40;;;16.80;55.80;;;;;;4975525;28;20704;-69
2022/11/15 01:56:19;;;;;;;4.03;2.42;;;16.80;55.80;;;;;;4975183;28;20237;-69
2022/11/15 01:59:06;;;;;;;3.15;2.85;;;16.80;55.80;;;;;;4975447;28;20221;-69
2022/11/15 02:01:52;;;;;;;2.53;2.20;;;16.70;55.90;;;;;;4975530;28;20233;-69
2022/11/15 02:04:40;;;;;;;2.80;2.55;;;16.70;55.90;;;;;;4975446;28;20190;-69
2022/11/15 02:07:28;;;;;;;2.90;2.58;;;16.70;55.80;;;;;;4975512;28;20190;-69
2022/11/15 02:10:15;;;;;;;3.00;2.63;;;16.70;56.00;;;;;;4975471;28;20746;-69
2022/11/15 02:13:01;;;;;;;2.50;2.30;;;16.70;55.90;;;;;;4975524;28;20193;-69
2022/11/15 02:15:50;;;;;;;2.40;2.20;;;16.70;56.00;;;;;;4975832;28;20213;-69
2022/11/15 02:18:38;;;;;;;3.08;2.42;;;16.70;55.80;;;;;;4975080;28;20684;-69
2022/11/15 02:21:28;;;;;;;2.58;2.22;;;16.60;56.00;;;;;;4979177;28;20233;-69
2022/11/15 02:24:53;;;;;;;2.47;2.22;;;16.60;56.00;;;;;;4978919;28;20181;-69
2022/11/15 02:28:07;;;;;;;2.97;2.70;;;16.60;56.00;;;;;;4972120;28;20282;-69
2022/11/15 02:30:54;;;;;;;2.63;2.28;;;16.60;56.10;;;;;;4978739;28;20361;-69
2022/11/15 02:33:44;;;;;;;3.13;2.25;;;16.60;56.20;;;;;;4978655;28;20193;-69
2022/11/15 02:36:37;;;;;;;3.10;2.40;;;16.60;56.20;;;;;;4979034;28;20181;-69
2022/11/15 02:39:26;;;;;;;2.40;2.20;;;16.60;56.10;;;;;;4979214;28;20189;-69
2022/11/15 02:45:15;;;;;;;2.83;2.40;;;16.50;56.10;;;;;;4978825;28;20203;-69
2022/11/15 02:48:02;;;;;;;2.80;2.50;;;16.50;56.10;;;;;;4978506;28;20673;-69
2022/11/15 02:50:48;;;;;;;2.70;2.42;;;16.50;56.10;;;;;;4978382;28;20260;-69
2022/11/15 02:53:33;;;;;;;2.28;2.10;;;16.50;56.10;;;;;;4978949;28;20185;-69
2022/11/15 02:56:19;;;;;;;2.20;2.03;;;16.40;56.00;;;;;;4978884;28;20652;-69
2022/11/15 02:59:42;;;;;;;2.42;2.22;;;16.50;56.10;;;;;;4978748;28;20221;-69
2022/11/15 03:02:47;;;;;;;2.53;2.30;;;16.50;56.10;;;;;;4978233;28;20224;-69
2022/11/15 03:05:36;;;;;;;2.50;2.30;;;16.40;56.00;;;;;;4978110;28;20277;-69
2022/11/15 03:08:26;;;;;;;2.63;2.40;;;16.50;56.10;;;;;;4978662;28;20190;-69
2022/11/15 03:11:13;;;;;;;2.38;2.17;;;16.50;56.10;;;;;;4978071;28;20225;-69
2022/11/15 03:13:59;;;;;;;2.60;2.40;;;16.40;56.10;;;;;;4978402;28;20189;-69
2022/11/15 03:16:46;;;;;;;2.40;2.20;;;16.40;56.00;;;;;;4978221;28;20213;-69
2022/11/15 03:19:34;;;;;;;3.30;2.13;;;16.50;56.10;;;;;;4978721;28;20667;-69
2022/11/15 03:22:27;;;;;;;2.55;2.30;;;16.40;56.00;;;;;;4978478;28;20221;-69
2022/11/15 03:25:14;;;;;;;3.08;2.50;;;16.40;56.00;;;;;;4978897;28;20224;-69
2022/11/15 03:28:00;;;;;;;2.50;2.30;;;16.40;56.00;;;;;;4978439;28;20190;-69
2022/11/15 03:30:46;;;;;;;2.47;2.28;;;16.40;56.00;;;;;;4976806;28;20229;-69
2022/11/15 03:33:32;;;;;;;2.38;2.17;;;16.40;56.00;;;;;;4978305;28;20556;-69
2022/11/15 03:36:18;;;;;;;3.38;2.55;;;16.40;56.00;;;;;;4978231;28;20295;-69
2022/11/15 03:39:07;;;;;;;3.05;2.10;;;16.40;56.00;;;;;;4977657;28;20225;-69
2022/11/15 03:41:57;;;;;;;2.40;2.20;;;16.40;56.00;;;;;;4977799;28;20228;-69
2022/11/15 03:44:47;;;;;;;2.20;2.00;;;16.40;56.00;;;;;;4977546;28;20657;-69
2022/11/15 03:47:33;;;;;;;2.30;2.10;;;16.30;55.90;;;;;;4977704;28;20309;-69
2022/11/15 03:50:20;;;;;;;2.47;2.28;;;16.40;56.00;;;;;;4977622;28;20185;-69
2022/11/15 03:53:06;;;;;;;3.15;2.30;;;16.40;56.20;;;;;;4977383;28;20186;-69
2022/11/15 03:55:52;;;;;;;2.33;2.10;;;16.30;56.00;;;;;;4977467;28;20213;-69
2022/11/15 03:58:38;;;;;;;2.15;2.00;;;16.30;55.90;;;;;;4977825;28;20197;-69
2022/11/15 04:01:24;;;;;;;2.20;2.10;;;16.30;55.90;;;;;;4977274;28;20220;-69
2022/11/15 04:04:09;;;;;;;2.20;2.00;;;16.30;55.90;;;;;;4977507;28;20189;-69
2022/11/15 04:06:55;;;;;;;2.20;2.00;;;16.30;55.90;;;;;;4977114;28;20190;-69
2022/11/15 04:12:46;;;;;;;2.58;2.38;;;16.30;55.90;;;;;;4977750;28;20236;-69
2022/11/15 04:15:32;;;;;;;2.47;2.28;;;16.30;56.10;;;;;;4977321;28;20680;-69
2022/11/15 04:18:17;;;;;;;2.40;2.20;;;16.30;56.30;;;;;;4978277;28;20189;-69
2022/11/15 04:24:13;;;;;;;3.40;2.15;;;16.20;56.00;;;;;;4976942;28;20544;-69
2022/11/15 04:26:59;;;;;;;2.15;2.00;;;16.20;56.20;;;;;;4976775;28;20672;-69
2022/11/15 04:29:46;;;;;;;2.42;2.22;;;16.20;56.00;;;;;;4977214;28;20614;-69
2022/11/15 04:32:32;;;;;;;2.13;2.03;;;16.20;55.90;;;;;;4977041;28;20724;-69
2022/11/15 04:35:18;;;;;;;2.40;2.20;;;16.30;56.00;;;;;;4976812;28;20643;-69
2022/11/15 04:38:04;;;;;;;2.15;1.90;;;16.30;56.50;;;;;;4977112;28;20257;-69
2022/11/15 04:40:50;;;;;;;2.10;1.92;;;16.30;55.90;;;;;;4976964;28;20225;-70
2022/11/15 04:43:35;;;;;;;2.00;1.90;;;16.30;55.80;;;;;;4976187;28;20186;-70
2022/11/15 04:46:23;;;;;;;2.50;1.95;;;16.40;55.60;;;;;;4976290;28;20184;-70
2022/11/15 04:49:09;;;;;;;2.35;2.15;;;16.40;55.60;;;;;;4976470;28;20185;-70
2022/11/15 04:51:54;;;;;;;2.10;1.90;;;16.40;55.60;;;;;;4976357;28;20357;-70
2022/11/15 04:54:41;;;;;;;2.03;1.90;;;16.40;55.60;;;;;;4976693;28;20217;-70
2022/11/15 04:57:27;;;;;;;2.40;1.90;;;16.40;55.60;;;;;;4976493;28;20198;-70
2022/11/15 05:00:14;;;;;;;2.83;1.90;;;16.40;55.70;;;;;;4976656;28;20562;-70
2022/11/15 05:06:16;;;;;;;3.75;2.20;;;16.40;55.70;;;;;;4936139;29;20280;-70
2022/11/15 05:09:02;;;;;;;2.25;2.05;;;16.40;55.50;;;;;;4976035;28;20251;-70
2022/11/15 05:11:48;;;;;;;3.03;2.20;;;16.40;55.40;;;;;;4976169;28;20225;-70
2022/11/15 05:14:33;;;;;;;2.33;2.13;;;16.40;55.40;;;;;;4977749;28;20256;-70
2022/11/15 05:17:19;;;;;;;2.40;2.15;;;16.40;55.40;;;;;;4976483;28;20281;-70
2022/11/15 05:20:07;;;;;;;2.15;1.95;;;16.40;55.30;;;;;;4975692;28;20224;-70
2022/11/15 05:22:53;;;;;;;2.47;2.00;;;16.40;55.40;;;;;;4975920;28;20198;-70
2022/11/15 05:25:39;;;;;;;2.17;1.98;;;16.40;55.30;;;;;;4976291;28;20189;-70
2022/11/15 05:28:25;;;;;;;2.42;2.15;;;16.40;55.20;;;;;;4975862;28;20189;-70
2022/11/15 05:31:11;;;;;;;2.05;1.88;;;16.50;55.40;;;;;;4976182;28;20325;-70
2022/11/15 05:33:57;;;;;;;2.20;2.00;;;16.40;55.10;;;;;;4976393;28;20229;-70
2022/11/15 05:36:45;;;;;;;2.13;1.95;;;16.50;55.20;;;;;;4975449;28;20206;-70
2022/11/15 05:39:31;;;;;;;1.90;1.80;;;16.40;55.00;;;;;;4975612;28;20193;-70
2022/11/15 05:42:18;;;;;;;2.00;1.90;;;16.50;55.10;;;;;;4975753;28;20232;-70
2022/11/15 05:45:05;;;;;;;2.10;2.00;;;16.50;55.20;;;;;;4961423;28;20181;-70
2022/11/15 05:47:50;;;;;;;2.38;2.00;;;16.50;55.00;;;;;;4975887;28;20189;-70
2022/11/15 05:50:36;;;;;;;1.98;1.88;;;16.50;55.00;;;;;;4975387;28;20224;-70
2022/11/15 05:53:24;;;;;;;2.30;2.10;;;16.50;55.00;;;;;;4975665;28;20272;-70
2022/11/15 05:56:09;;;;;;;2.05;1.90;;;16.50;54.90;;;;;;4976602;28;20238;-70
2022/11/15 05:58:55;;;;;;;2.13;1.98;;;16.50;54.90;;;;;;4976315;28;20194;-70
2022/11/15 06:01:41;;;;;;;2.03;1.92;;;16.50;54.90;;;;;;4976323;28;20229;-70
2022/11/15 06:04:27;;;;;;;2.05;1.95;;;16.50;54.90;;;;;;4978568;28;20189;-70
2022/11/15 06:07:13;;;;;;;2.17;2.03;;;16.60;54.90;;;;;;4978133;28;20295;-70
2022/11/15 06:10:00;;;;;;;1.90;1.80;;;16.60;54.90;;;;;;4975836;28;20659;-69
2022/11/15 06:12:46;;;;;;;2.30;2.10;;;16.60;54.50;;;;;;4975814;28;20553;-69
2022/11/15 06:15:32;;;;;;;3.20;2.03;;;16.60;54.30;;;;;;4961067;28;20213;-69
2022/11/15 06:18:17;;;;;;;3.13;2.20;;;16.60;54.60;;;;;;4975713;28;20664;-69
2022/11/15 06:21:03;;;;;;;2.67;1.90;;;16.60;54.50;;;;;;4975466;28;20272;-69
2022/11/15 06:23:48;;;;;;;2.63;1.98;;;16.60;54.70;;;;;;4975453;28;20188;-69
2022/11/15 06:26:35;;;;;;;2.40;2.20;;;16.60;55.20;;;;;;4975032;28;20294;-69
2022/11/15 06:29:21;;;;;;;2.28;2.08;;;16.70;55.10;;;;;;4975079;28;20218;-69
2022/11/15 06:32:07;;;;;;;3.63;2.17;;;16.60;55.00;;;;;;4975472;28;20265;-69
2022/11/15 06:34:53;;;;;;;2.47;2.20;;;16.70;55.20;;;;;;4975088;28;20185;-69
2022/11/15 06:37:38;;;;;;;3.08;1.90;;;16.70;55.20;;;;;;4976180;28;20779;-69
2022/11/15 06:40:24;;;;;;;2.17;1.88;;;16.70;55.20;;;;;;4975658;28;20185;-69
2022/11/15 06:43:10;;;;;;;2.22;2.03;;;16.70;55.10;;;;;;4975844;28;20201;-69
2022/11/15 06:45:55;;;;;;;2.83;2.30;;;16.80;55.40;;;;;;4976880;28;20198;-69
2022/11/15 06:48:41;;;;;;;2.10;2.00;;;16.80;55.10;;;;;;4975587;28;20190;-69
2022/11/15 06:51:27;;;;;;;2.28;2.00;;;16.80;55.10;;;;;;4975133;28;20224;-69
2022/11/15 06:54:14;;;;;;;1.92;1.83;;;16.80;55.20;;;;;;4975426;28;20277;-69
2022/11/15 06:57:00;;;;;;;3.35;1.92;;;16.80;55.00;;;;;;4975290;28;20726;-69
2022/11/15 06:59:47;;;;;;;2.60;2.03;;;16.80;55.10;;;;;;4974711;28;20197;-68
2022/11/15 07:02:32;;;;;;;4.15;2.10;;;16.80;54.90;;;;;;4974870;28;20227;-68
2022/11/15 07:05:17;;;;;;;3.42;2.00;;;16.80;54.80;;;;;;4975432;28;20193;-68
2022/11/15 07:08:03;;;;;;;2.30;2.00;;;16.80;54.70;;;;;;4979020;28;20549;-68
2022/11/15 07:10:50;;;;;;;1.88;1.77;;;16.80;54.50;;;;;;4978754;28;20300;-68
2022/11/15 07:13:36;;;;;;;2.60;2.00;;;16.80;54.50;;;;;;4978696;28;20193;-69
2022/11/15 07:16:24;;;;;;;2.08;1.92;;;16.90;54.70;;;;;;4978441;28;20226;-69
2022/11/15 07:19:10;;;;;;;2.42;2.00;;;16.90;54.10;;;;;;4978246;28;20300;-67
2022/11/15 07:21:55;;;;;;;2.85;2.10;;;16.90;53.90;;;;;;4977920;28;20704;-67
2022/11/15 07:24:41;;;;;;;2.20;2.00;;;17.00;53.70;;;;;;4978416;28;20294;-67
2022/11/15 07:27:26;;;;;;;3.22;2.20;;;17.10;53.80;;;;;;4977982;28;20611;-67
2022/11/15 07:30:13;;;;;;;2.50;2.30;;;17.10;53.60;;;;;;4978178;28;20193;-67
2022/11/15 07:33:00;;;;;;;2.35;2.15;;;17.20;53.50;;;;;;4978106;28;20685;-67
2022/11/15 07:35:49;;;;;;;3.08;2.30;;;17.20;53.30;;;;;;4977690;28;20205;-67
2022/11/15 07:38:34;;;;;;;2.30;2.10;;;17.30;53.30;;;;;;4977855;28;20221;-67
2022/11/15 07:41:20;;;;;;;2.47;2.20;;;17.30;53.50;;;;;;4977838;28;20260;-67
2022/11/15 07:44:05;;;;;;;3.45;2.30;;;17.40;53.40;;;;;;4977819;28;20205;-67
2022/11/15 07:46:52;;;;;;;1.92;1.80;;;17.40;53.30;;;;;;4977643;28;20186;-67
2022/11/15 07:49:39;;;;;;;2.33;2.22;;;17.40;53.30;;;;;;4977636;28;20673;-67
2022/11/15 07:52:25;;;;;;;2.97;2.30;;;17.50;53.20;;;;;;4977657;28;20233;-67
2022/11/15 07:55:13;;;;;;;3.08;2.50;;;17.50;53.20;;;;;;4977315;28;20299;-67
2022/11/15 07:58:02;;;;;;;2.85;2.55;;;17.60;53.00;;;;;;4977782;28;20221;-67
2022/11/15 08:00:48;;;;;;;4.28;2.67;;;17.70;53.10;;;;;;4977615;28;20747;-67
2022/11/15 08:03:34;;;;;;;5.05;3.10;;;17.70;53.00;;;;;;4962960;28;20265;-67
2022/11/15 08:06:21;;;;;;;3.30;2.25;;;17.70;52.70;;;;;;4977607;28;20177;-66
2022/11/15 08:09:07;;;;;;;3.80;2.67;;;17.80;52.80;;;;;;4977333;28;20644;-66
2022/11/15 08:11:52;;;;;;;3.38;2.80;;;17.90;52.90;;;;;;4977422;28;20229;-66
2022/11/15 08:14:38;;;;;;;3.85;2.75;;;17.90;52.90;;;;;;4977194;28;20233;-66
2022/11/15 08:17:24;;;;;;;2.92;2.55;;;17.90;52.90;;;;;;4976343;28;20204;-66
2022/11/15 08:20:11;;;;;;;2.47;2.28;;;17.90;52.80;;;;;;4977051;28;20578;-66
2022/11/15 08:22:58;;;;;;;2.83;2.60;;;18.00;53.50;;;;;;4977106;28;20185;-66
2022/11/15 08:25:44;;;;;;;2.83;2.63;;;18.00;52.80;;;;;;4977046;28;20181;-69
2022/11/15 08:28:30;;;;;;;2.80;2.60;;;18.00;52.70;;;;;;4976973;28;20297;-69
2022/11/15 08:31:17;;;;;;;3.08;2.50;;;18.00;52.70;;;;;;4976832;28;20225;-69
2022/11/15 08:34:03;;;;;;;3.42;3.10;;;18.10;52.60;;;;;;4977095;28;20193;-69
2022/11/15 08:36:48;;;;;;;2.88;2.65;;;18.10;52.50;;;;;;4976666;28;20237;-69
2022/11/15 08:39:35;;;;;;;2.67;2.47;;;18.10;52.50;;;;;;4976980;28;20274;-69
2022/11/15 08:42:21;;;;;;;2.97;2.78;;;18.10;52.60;;;;;;4977054;28;20251;-69
2022/11/15 08:45:08;;;;;;;3.35;2.65;;;18.20;52.60;;;;;;4978968;28;20733;-67
2022/11/15 08:47:54;;;;;;;3.20;2.92;;;18.10;52.50;;;;;;4962402;28;20178;-67
2022/11/15 08:50:39;;;;;;;3.00;2.70;;;18.20;52.50;;;;;;4977105;28;20269;-67
2022/11/15 08:53:25;;;;;;;3.00;2.70;;;18.20;52.50;;;;;;4976615;28;20188;-67
2022/11/15 08:56:13;;;;;;;3.60;2.85;;;18.20;52.50;;;;;;4975914;28;20313;-67
2022/11/15 08:58:59;;;;;;;3.25;2.95;;;18.20;52.60;;;;;;4976531;28;20217;-67
2022/11/15 09:01:45;;;;;;;3.47;2.88;;;18.20;52.50;;;;;;4976168;28;20216;-67
2022/11/15 09:04:30;;;;;;;3.30;3.00;;;18.20;52.50;;;;;;4976116;28;20289;-67
2022/11/15 09:07:16;;;;;;;3.15;2.78;;;18.20;52.50;;;;;;4976277;28;20189;-67
2022/11/15 09:10:02;;;;;;;4.18;3.10;;;18.20;52.50;;;;;;4975986;28;20746;-67
2022/11/15 09:12:49;;;;;;;4.28;2.78;;;18.20;52.40;;;;;;4976245;28;20192;-67
2022/11/15 09:15:35;;;;;;;2.80;2.60;;;18.20;52.60;;;;;;4975967;28;20656;-67
2022/11/15 09:18:22;;;;;;;3.65;3.00;;;18.30;52.70;;;;;;4975798;28;20224;-67
2022/11/15 09:21:08;;;;;;;3.00;2.70;;;18.30;52.80;;;;;;4975636;28;20228;-67
2022/11/15 09:23:54;;;;;;;3.13;2.40;;;18.30;52.70;;;;;;4961513;28;20182;-67
2022/11/15 09:26:39;;;;;;;2.67;2.47;;;18.40;52.60;;;;;;4976220;28;20664;-67
2022/11/15 09:29:27;;;;;;;3.78;2.40;;;18.40;52.50;;;;;;4975880;28;20623;-67
2022/11/15 09:32:13;;;;;;;2.40;2.20;;;18.50;52.40;;;;;;4975439;28;20280;-67
2022/11/15 09:34:59;;;;;;;2.63;2.42;;;18.50;52.40;;;;;;4975461;28;20268;-67
2022/11/15 09:37:45;;;;;;;2.75;2.55;;;18.60;52.40;;;;;;4975725;28;20217;-67
2022/11/15 09:40:31;;;;;;;2.92;2.65;;;18.60;52.20;;;;;;4975612;28;20185;-67
2022/11/15 09:43:30;;;;;;;2.78;2.50;;;18.70;52.00;;;;;;4975384;28;20268;-67
2022/11/15 09:46:21;;;;;;;3.10;2.60;;;18.70;52.00;;;;;;4975827;28;20233;-67
2022/11/15 09:49:12;;;;;;;2.88;2.60;;;18.80;51.80;;;;;;4967213;28;20198;-67
2022/11/15 09:51:58;;;;;;;2.90;2.70;;;18.80;51.80;;;;;;4975394;28;20220;-67
2022/11/15 09:54:29;;;;;;;3.03;2.40;;;18.80;51.80;;;;;;4957922;28;20202;-67
2022/11/15 09:56:57;;;;;;;2.53;2.33;;;18.80;51.80;;;;;;4958133;28;20217;-67
2022/11/15 09:59:33;;;;;;;2.50;2.30;;;18.80;51.70;;;;;;4957935;28;20198;-67
2022/11/15 10:02:05;;;;;;;2.65;2.45;;;18.80;52.30;;;;;;4957794;28;20230;-67
2022/11/15 10:04:33;;;;;;;2.90;2.55;;;18.80;51.60;;;;;;4958801;28;20198;-67
2022/11/15 10:07:03;;;;;;;3.22;2.63;;;18.80;51.60;;;;;;4957865;28;20224;-66
2022/11/15 10:09:32;;;;;;;2.60;2.40;;;18.80;51.50;;;;;;4957836;28;20210;-66
2022/11/15 10:12:00;;;;;;;2.60;2.40;;;18.80;51.60;;;;;;4974828;28;20300;-67
2022/11/15 10:14:28;;;;;;;3.05;2.83;;;18.80;51.50;;;;;;4974889;28;20649;-67
2022/11/15 10:17:15;;;;;;;2.90;2.70;;;18.80;51.60;;;;;;4974845;28;20628;-67
2022/11/15 10:19:51;;;;;;;2.85;2.60;;;18.90;51.60;;;;;;4957808;28;20309;-67
2022/11/15 10:22:26;;;;;;;3.13;2.83;;;19.00;51.60;;;;;;4957538;28;20712;-67
2022/11/15 10:25:11;;;;;;;4.15;3.30;;;19.00;51.30;;;;;;4957722;28;20256;-67
2022/11/15 10:27:38;;;;;;;2.80;2.60;;;19.00;51.30;;;;;;4957631;28;20197;-67
2022/11/15 10:30:07;;;;;;;4.25;2.88;;;19.00;51.20;;;;;;4957723;28;20213;-67
2022/11/15 10:32:34;;;;;;;3.00;2.80;;;19.00;51.20;;;;;;4975348;28;20213;-67
2022/11/15 10:35:06;;;;;;;2.80;2.55;;;19.10;51.20;;;;;;4957561;28;20574;-67
2022/11/15 10:37:33;;;;;;;2.90;2.70;;;19.10;51.20;;;;;;4956973;28;20218;-67
2022/11/15 10:40:07;;;;;;;4.22;2.88;;;19.10;51.30;;;;;;4957600;28;20202;-67
2022/11/15 10:42:35;;;;;;;3.45;2.80;;;19.10;51.10;;;;;;4961402;28;20213;-67
2022/11/15 10:45:02;;;;;;;3.30;2.55;;;19.10;51.10;;;;;;4962019;28;20194;-67
2022/11/15 10:47:30;;;;;;;2.88;2.50;;;19.20;51.20;;;;;;4961295;28;20256;-67
2022/11/15 10:50:29;;;;;;;3.13;2.83;;;19.20;51.00;;;;;;4961247;28;20296;-69
2022/11/15 10:52:56;;;;;;;2.85;2.40;;;19.20;51.10;;;;;;4961401;28;20190;-68
2022/11/15 10:55:26;;;;;;;2.47;2.28;;;19.30;51.10;;;;;;4961241;28;20245;-68
2022/11/15 10:57:55;;;;;;;3.22;2.50;;;19.20;51.00;;;;;;4962157;28;20214;-68
2022/11/15 11:00:31;;;;;;;3.78;2.53;;;19.30;51.60;;;;;;4960901;28;20206;-68
2022/11/15 11:02:59;;;;;;;2.97;2.65;;;19.20;51.00;;;;;;4961267;28;20661;-68
2022/11/15 11:05:31;;;;;;;2.92;2.35;;;19.30;51.00;;;;;;4960800;28;20202;-68
2022/11/15 11:08:01;;;;;;;2.67;2.42;;;19.30;50.90;;;;;;4961083;28;20642;-68
2022/11/15 11:10:28;;;;;;;2.95;2.75;;;19.30;50.90;;;;;;4978160;28;20186;-68
2022/11/15 11:12:55;;;;;;;2.58;2.38;;;19.30;50.90;;;;;;4960908;28;20206;-68
2022/11/15 11:15:25;;;;;;;2.85;2.60;;;19.30;50.80;;;;;;4960778;28;20255;-68
2022/11/15 11:17:58;;;;;;;2.78;2.58;;;19.30;50.90;;;;;;4960739;28;20588;-68
2022/11/15 11:20:30;;;;;;;2.65;2.45;;;19.40;50.90;;;;;;4960892;28;20210;-68
2022/11/15 11:23:05;;;;;;;2.90;2.70;;;19.40;50.90;;;;;;4960890;28;20201;-68
2022/11/15 11:25:35;;;;;;;2.95;2.58;;;19.40;50.90;;;;;;4960889;28;20228;-67
2022/11/15 11:28:19;;;;;;;3.03;2.53;;;19.40;51.00;;;;;;4978171;28;20190;-67
2022/11/15 11:30:51;;;;;;;2.40;2.20;;;19.30;51.00;;;;;;4960699;28;20222;-67
2022/11/15 11:33:18;;;;;;;2.70;2.30;;;19.30;51.10;;;;;;4977801;28;20193;-67
2022/11/15 11:35:56;;;;;;;3.28;2.67;;;19.30;51.10;;;;;;4960908;28;20206;-67
2022/11/15 11:38:45;;;;;;;3.03;2.45;;;19.30;51.10;;;;;;4960899;28;20210;-67
2022/11/15 11:41:17;;;;;;;2.60;2.40;;;19.30;51.00;;;;;;4960153;28;20313;-67
2022/11/15 11:43:51;;;;;;;3.13;2.83;;;19.40;50.90;;;;;;4960137;28;20205;-67
2022/11/15 11:46:31;;;;;;;3.20;2.50;;;19.40;50.60;;;;;;4960244;28;20194;-67
2022/11/15 11:48:59;;;;;;;2.65;2.42;;;19.40;50.50;;;;;;4960189;28;20201;-67
2022/11/15 11:51:30;;;;;;;2.35;2.15;;;19.50;50.60;;;;;;4959399;28;20596;-67
2022/11/15 11:54:00;;;;;;;2.75;2.35;;;19.50;50.50;;;;;;4959605;28;20187;-67
2022/11/15 11:56:30;;;;;;;4.00;2.78;;;19.50;50.50;;;;;;4960028;28;20218;-67
2022/11/15 11:59:00;;;;;;;3.45;2.78;;;19.50;50.50;;;;;;4960028;28;20206;-67
2022/11/15 12:01:29;;;;;;;3.25;2.95;;;19.60;50.40;;;;;;4959869;28;20213;-67
2022/11/15 12:03:58;;;;;;;2.88;2.58;;;19.60;50.50;;;;;;4960585;28;20206;-67
2022/11/15 12:06:32;;;;;;;3.10;2.83;;;19.60;50.40;;;;;;4975443;28;20194;-67
2022/11/15 12:09:03;;;;;;;3.20;2.40;;;19.60;50.40;;;;;;4978387;28;20224;-67
2022/11/15 12:11:33;;;;;;;3.50;2.50;;;19.60;50.40;;;;;;4963212;28;20276;-67
2022/11/15 12:14:02;;;;;;;3.10;2.67;;;19.60;50.30;;;;;;4959932;28;20260;-67
2022/11/15 12:16:32;;;;;;;2.97;2.63;;;19.60;50.40;;;;;;4959707;28;20229;-67
2022/11/15 12:19:01;;;;;;;2.92;2.70;;;19.60;50.30;;;;;;4959588;28;20667;-67
2022/11/15 12:21:35;;;;;;;2.90;2.60;;;19.60;50.40;;;;;;4959588;28;20222;-67
2022/11/15 12:24:05;;;;;;;3.13;2.83;;;19.60;50.50;;;;;;4959500;28;20675;-67
2022/11/15 12:26:34;;;;;;;2.67;2.47;;;19.60;50.30;;;;;;4959486;28;20196;-67
2022/11/15 12:29:03;;;;;;;2.92;2.60;;;19.60;50.40;;;;;;4959371;28;20209;-67
2022/11/15 12:31:33;;;;;;;2.90;2.60;;;19.70;50.40;;;;;;4959327;28;20705;-67
2022/11/15 12:34:02;;;;;;;2.70;2.50;;;19.60;50.40;;;;;;4959899;28;20569;-67
2022/11/15 12:36:37;;;;;;;2.63;2.42;;;19.60;50.50;;;;;;4959561;28;20198;-67
2022/11/15 12:39:05;;;;;;;2.97;2.67;;;19.60;50.50;;;;;;4976594;28;20174;-67
2022/11/15 12:41:33;;;;;;;2.60;2.30;;;19.60;50.40;;;;;;4959078;28;20228;-67
2022/11/15 12:44:00;;;;;;;3.83;2.50;;;19.60;50.40;;;;;;4959139;28;20206;-69
2022/11/15 12:47:09;;;;;;;2.60;2.40;;;19.60;50.50;;;;;;4958962;28;20260;-69
2022/11/15 12:49:44;;;;;;;2.45;2.25;;;19.60;50.50;;;;;;4945063;28;20594;-68
2022/11/15 12:52:12;;;;;;;2.40;2.20;;;19.60;50.50;;;;;;4958965;28;20221;-68
2022/11/15 12:54:56;;;;;;;2.60;2.22;;;19.60;50.50;;;;;;4959678;28;20257;-69
2022/11/15 12:57:36;;;;;;;3.35;2.40;;;19.60;50.50;;;;;;4958761;28;20233;-69
2022/11/15 13:00:20;;;;;;;3.28;2.70;;;19.60;50.50;;;;;;4976372;28;20186;-69
2022/11/15 13:02:48;;;;;;;3.97;2.60;;;19.60;50.40;;;;;;4946982;28;20198;-69
2022/11/15 13:05:54;;;;;;;2.60;2.40;;;19.60;50.30;;;;;;4976017;28;20601;-69
2022/11/15 13:08:37;;;;;;;2.63;2.30;;;19.60;50.50;;;;;;4976339;28;20540;-69
2022/11/15 13:11:42;;;;;;;2.80;2.30;;;19.60;50.40;;;;;;4959026;28;20226;-69
2022/11/15 13:14:54;;;;;;;2.72;2.53;;;19.60;50.50;;;;;;4958686;28;20202;-69
2022/11/15 13:17:36;;;;;;;2.95;2.45;;;19.60;50.60;;;;;;4959694;28;20224;-69
2022/11/15 13:20:19;;;;;;;2.33;2.13;;;19.60;50.60;;;;;;4958920;28;20210;-69
2022/11/15 13:22:50;;;;;;;3.03;2.38;;;19.60;50.60;;;;;;4958291;28;20567;-68
2022/11/15 13:25:19;;;;;;;2.90;2.60;;;19.60;50.70;;;;;;4958524;28;20194;-68
2022/11/15 13:27:47;;;;;;;2.70;2.50;;;19.60;50.60;;;;;;4958268;28;20198;-68
2022/11/15 13:30:17;;;;;;;2.80;2.50;;;19.60;50.70;;;;;;4958071;28;20202;-68
2022/11/15 13:32:44;;;;;;;3.03;2.45;;;19.60;50.70;;;;;;4958274;28;20716;-68
2022/11/15 13:35:16;;;;;;;3.40;2.70;;;19.60;50.70;;;;;;4958341;28;20205;-68
2022/11/15 13:37:42;;;;;;;2.58;2.25;;;19.60;50.80;;;;;;4958375;28;20700;-68
2022/11/15 13:40:35;;;;;;;2.97;2.05;;;19.50;50.90;;;;;;4958364;28;20202;-68
2022/11/15 13:43:18;;;;;;;2.50;2.30;;;19.50;51.00;;;;;;4955569;28;20245;-68
2022/11/15 13:45:46;;;;;;;2.70;2.50;;;19.50;51.10;;;;;;4958911;28;20547;-68
2022/11/15 13:48:12;;;;;;;4.28;2.30;;;19.40;51.10;;;;;;4957972;28;20245;-68
2022/11/15 13:50:39;;;;;;;2.30;2.10;;;19.50;51.20;;;;;;4957922;28;20804;-68
2022/11/15 13:53:07;;;;;;;2.53;2.33;;;19.50;50.90;;;;;;4958145;28;20694;-68
2022/11/15 13:55:35;;;;;;;3.13;2.58;;;19.50;50.90;;;;;;4958005;28;20202;-68
2022/11/15 13:58:05;;;;;;;3.00;2.70;;;19.50;51.10;;;;;;4975185;28;20688;-68
2022/11/15 14:00:36;;;;;;;3.35;2.50;;;19.50;51.20;;;;;;4957896;28;20276;-68
2022/11/15 14:03:16;;;;;;;2.60;2.40;;;19.40;51.20;;;;;;4959767;28;20201;-68
2022/11/15 14:05:43;;;;;;;4.07;3.00;;;19.40;51.20;;;;;;4958105;28;20202;-67
2022/11/15 14:08:22;;;;;;;2.97;2.47;;;19.40;51.20;;;;;;4957918;28;20284;-67
2022/11/15 14:11:05;;;;;;;3.03;2.72;;;19.50;51.20;;;;;;4957908;28;20772;-67
2022/11/15 14:13:32;;;;;;;2.83;2.63;;;19.50;51.10;;;;;;4957934;28;20202;-67
2022/11/15 14:16:13;;;;;;;2.47;2.28;;;19.60;50.90;;;;;;4957189;28;20206;-67
2022/11/15 14:18:43;;;;;;;2.50;2.30;;;19.60;50.90;;;;;;4975785;28;20222;-67
2022/11/15 14:21:10;;;;;;;3.42;2.45;;;19.70;50.80;;;;;;4958143;28;20249;-67